sensor_id;sensor_type;location;lat;lon;timestamp;pressure;altitude;pressure_sealevel;temperature;humidity
64886;BME280;51514;52.206;5.114;2023-05-20T00:01:53;102626.38;;;13.59;68.02
64886;BME280;51514;52.206;5.114;2023-05-20T00:04:18;102624.53;;;13.59;67.81
64886;BME280;51514;52.206;5.114;2023-05-20T00:06:44;102627.25;;;13.59;67.91
64886;BME280;51514;52.206;5.114;2023-05-20T00:09:09;102625.53;;;13.58;67.75
64886;BME280;51514;52.206;5.114;2023-05-20T00:11:34;102621.09;;;13.57;68.01
64886;BME280;51514;52.206;5.114;2023-05-20T00:14:00;102623.81;;;13.57;68.36
64886;BME280;51514;52.206;5.114;2023-05-20T00:16:26;102628.63;;;13.53;68.43
64886;BME280;51514;52.206;5.114;2023-05-20T00:18:51;102629.78;;;13.51;68.17
64886;BME280;51514;52.206;5.114;2023-05-20T00:21:17;102629.19;;;13.47;68.35
64886;BME280;51514;52.206;5.114;2023-05-20T00:23:42;102621.19;;;13.46;68.56
64886;BME280;51514;52.206;5.114;2023-05-20T00:26:08;102629.44;;;13.44;68.99
64886;BME280;51514;52.206;5.114;2023-05-20T00:28:35;102631.28;;;13.44;68.88
64886;BME280;51514;52.206;5.114;2023-05-20T00:31:00;102626.16;;;13.41;68.87
64886;BME280;51514;52.206;5.114;2023-05-20T00:33:25;102623.59;;;13.39;68.95
64886;BME280;51514;52.206;5.114;2023-05-20T00:35:51;102634.53;;;13.38;69.05
64886;BME280;51514;52.206;5.114;2023-05-20T00:38:16;102621.13;;;13.36;69.17
64886;BME280;51514;52.206;5.114;2023-05-20T00:40:41;102628.28;;;13.37;69.65
64886;BME280;51514;52.206;5.114;2023-05-20T00:43:08;102635.66;;;13.35;69.69
64886;BME280;51514;52.206;5.114;2023-05-20T00:45:34;102630.25;;;13.35;69.96
64886;BME280;51514;52.206;5.114;2023-05-20T00:48:01;102628.41;;;13.36;69.81
64886;BME280;51514;52.206;5.114;2023-05-20T00:50:28;102629.50;;;13.33;69.93
64886;BME280;51514;52.206;5.114;2023-05-20T00:52:54;102612.81;;;13.28;69.67
64886;BME280;51514;52.206;5.114;2023-05-20T00:55:20;102620.94;;;13.28;70.12
64886;BME280;51514;52.206;5.114;2023-05-20T00:57:46;102614.78;;;13.26;70.63
64886;BME280;51514;52.206;5.114;2023-05-20T01:00:13;102603.97;;;13.26;70.06
64886;BME280;51514;52.206;5.114;2023-05-20T01:02:38;102601.38;;;13.25;69.82
64886;BME280;51514;52.206;5.114;2023-05-20T01:05:04;102596.22;;;13.22;70.03
64886;BME280;51514;52.206;5.114;2023-05-20T01:07:30;102597.06;;;13.22;70.23
64886;BME280;51514;52.206;5.114;2023-05-20T01:09:55;102601.63;;;13.22;70.56
64886;BME280;51514;52.206;5.114;2023-05-20T01:12:22;102598.94;;;13.22;70.23
64886;BME280;51514;52.206;5.114;2023-05-20T01:15:00;102601.75;;;13.20;70.37
64886;BME280;51514;52.206;5.114;2023-05-20T01:17:29;102601.94;;;13.19;70.39
64886;BME280;51514;52.206;5.114;2023-05-20T01:19:56;102597.38;;;13.19;70.79
64886;BME280;51514;52.206;5.114;2023-05-20T01:22:27;102590.06;;;13.20;70.56
64886;BME280;51514;52.206;5.114;2023-05-20T01:24:52;102594.78;;;13.18;70.30
64886;BME280;51514;52.206;5.114;2023-05-20T01:27:18;102593.28;;;13.13;71.01
64886;BME280;51514;52.206;5.114;2023-05-20T01:29:45;102595.28;;;13.11;70.94
64886;BME280;51514;52.206;5.114;2023-05-20T01:32:19;102589.97;;;13.10;71.38
64886;BME280;51514;52.206;5.114;2023-05-20T01:34:50;102592.97;;;13.07;71.20
64886;BME280;51514;52.206;5.114;2023-05-20T01:37:17;102585.09;;;13.04;70.91
64886;BME280;51514;52.206;5.114;2023-05-20T01:39:44;102576.97;;;13.04;71.08
64886;BME280;51514;52.206;5.114;2023-05-20T01:42:10;102574.66;;;12.99;71.05
64886;BME280;51514;52.206;5.114;2023-05-20T01:44:38;102575.66;;;12.98;71.19
64886;BME280;51514;52.206;5.114;2023-05-20T01:47:03;102573.78;;;12.99;71.50
64886;BME280;51514;52.206;5.114;2023-05-20T01:49:29;102579.09;;;13.00;71.16
64886;BME280;51514;52.206;5.114;2023-05-20T01:51:55;102566.53;;;12.99;71.61
64886;BME280;51514;52.206;5.114;2023-05-20T01:54:20;102573.66;;;13.00;71.48
64886;BME280;51514;52.206;5.114;2023-05-20T01:56:45;102570.22;;;12.98;71.93
64886;BME280;51514;52.206;5.114;2023-05-20T01:59:11;102579.38;;;12.97;71.60
64886;BME280;51514;52.206;5.114;2023-05-20T02:01:36;102573.09;;;12.97;71.59
64886;BME280;51514;52.206;5.114;2023-05-20T02:04:02;102574.22;;;12.94;71.73
64886;BME280;51514;52.206;5.114;2023-05-20T02:06:27;102571.50;;;12.94;71.94
64886;BME280;51514;52.206;5.114;2023-05-20T02:08:52;102566.22;;;12.93;72.22
64886;BME280;51514;52.206;5.114;2023-05-20T02:11:18;102565.47;;;12.91;72.77
64886;BME280;51514;52.206;5.114;2023-05-20T02:13:43;102564.63;;;12.90;72.62
64886;BME280;51514;52.206;5.114;2023-05-20T02:16:08;102566.34;;;12.91;72.17
64886;BME280;51514;52.206;5.114;2023-05-20T02:18:34;102576.31;;;12.91;72.04
64886;BME280;51514;52.206;5.114;2023-05-20T02:21:03;102572.88;;;12.89;72.19
64886;BME280;51514;52.206;5.114;2023-05-20T02:23:31;102566.03;;;12.85;72.29
64886;BME280;51514;52.206;5.114;2023-05-20T02:25:57;102572.31;;;12.85;72.46
64886;BME280;51514;52.206;5.114;2023-05-20T02:28:22;102567.88;;;12.84;72.45
64886;BME280;51514;52.206;5.114;2023-05-20T02:30:47;102564.69;;;12.79;72.39
64886;BME280;51514;52.206;5.114;2023-05-20T02:33:15;102568.84;;;12.83;72.34
64886;BME280;51514;52.206;5.114;2023-05-20T02:35:40;102565.28;;;12.83;72.21
64886;BME280;51514;52.206;5.114;2023-05-20T02:38:05;102576.84;;;12.85;72.76
64886;BME280;51514;52.206;5.114;2023-05-20T02:40:31;102567.00;;;12.84;72.41
64886;BME280;51514;52.206;5.114;2023-05-20T02:42:57;102563.44;;;12.83;72.76
64886;BME280;51514;52.206;5.114;2023-05-20T02:45:22;102568.84;;;12.83;72.60
64886;BME280;51514;52.206;5.114;2023-05-20T02:47:48;102565.16;;;12.84;72.68
64886;BME280;51514;52.206;5.114;2023-05-20T02:50:13;102558.63;;;12.87;72.94
64886;BME280;51514;52.206;5.114;2023-05-20T02:52:38;102563.31;;;12.85;72.86
64886;BME280;51514;52.206;5.114;2023-05-20T02:55:07;102551.50;;;12.86;72.85
64886;BME280;51514;52.206;5.114;2023-05-20T02:57:32;102553.06;;;12.88;72.67
64886;BME280;51514;52.206;5.114;2023-05-20T02:59:59;102554.91;;;12.88;72.85
64886;BME280;51514;52.206;5.114;2023-05-20T03:02:24;102555.06;;;12.86;72.88
64886;BME280;51514;52.206;5.114;2023-05-20T03:04:49;102547.81;;;12.87;72.62
64886;BME280;51514;52.206;5.114;2023-05-20T03:07:17;102551.50;;;12.86;73.24
64886;BME280;51514;52.206;5.114;2023-05-20T03:09:45;102557.78;;;12.86;73.10
64886;BME280;51514;52.206;5.114;2023-05-20T03:12:11;102554.34;;;12.84;72.86
64886;BME280;51514;52.206;5.114;2023-05-20T03:14:36;102554.47;;;12.83;72.56
64886;BME280;51514;52.206;5.114;2023-05-20T03:17:01;102557.44;;;12.79;72.81
64886;BME280;51514;52.206;5.114;2023-05-20T03:19:27;102552.00;;;12.79;73.18
64886;BME280;51514;52.206;5.114;2023-05-20T03:21:52;102557.69;;;12.76;73.21
64886;BME280;51514;52.206;5.114;2023-05-20T03:24:17;102556.97;;;12.74;73.61
64886;BME280;51514;52.206;5.114;2023-05-20T03:26:43;102557.34;;;12.70;73.34
64886;BME280;51514;52.206;5.114;2023-05-20T03:29:10;102561.19;;;12.67;73.23
64886;BME280;51514;52.206;5.114;2023-05-20T03:31:36;102560.47;;;12.65;73.69
64886;BME280;51514;52.206;5.114;2023-05-20T03:34:01;102562.56;;;12.62;73.93
64886;BME280;51514;52.206;5.114;2023-05-20T03:36:26;102557.28;;;12.60;74.46
64886;BME280;51514;52.206;5.114;2023-05-20T03:38:52;102559.25;;;12.58;74.54
64886;BME280;51514;52.206;5.114;2023-05-20T03:41:18;102562.09;;;12.57;74.65
64886;BME280;51514;52.206;5.114;2023-05-20T03:43:43;102560.25;;;12.57;74.81
64886;BME280;51514;52.206;5.114;2023-05-20T03:46:08;102558.53;;;12.56;74.71
64886;BME280;51514;52.206;5.114;2023-05-20T03:48:34;102552.41;;;12.54;74.82
64886;BME280;51514;52.206;5.114;2023-05-20T03:50:59;102552.66;;;12.51;75.18
64886;BME280;51514;52.206;5.114;2023-05-20T03:53:26;102560.78;;;12.51;75.42
64886;BME280;51514;52.206;5.114;2023-05-20T03:55:51;102562.63;;;12.51;75.43
64886;BME280;51514;52.206;5.114;2023-05-20T03:58:16;102549.34;;;12.48;75.53
64886;BME280;51514;52.206;5.114;2023-05-20T04:00:42;102549.22;;;12.49;75.96
64886;BME280;51514;52.206;5.114;2023-05-20T04:03:07;102551.19;;;12.47;76.01
64886;BME280;51514;52.206;5.114;2023-05-20T04:05:33;102545.78;;;12.47;75.85
64886;BME280;51514;52.206;5.114;2023-05-20T04:07:59;102552.03;;;12.48;76.15
64886;BME280;51514;52.206;5.114;2023-05-20T04:10:24;102548.47;;;12.47;76.19
64886;BME280;51514;52.206;5.114;2023-05-20T04:12:50;102546.75;;;12.46;76.36
64886;BME280;51514;52.206;5.114;2023-05-20T04:15:15;102553.16;;;12.45;76.45
64886;BME280;51514;52.206;5.114;2023-05-20T04:17:41;102555.75;;;12.47;76.68
64886;BME280;51514;52.206;5.114;2023-05-20T04:20:07;102554.00;;;12.46;76.87
64886;BME280;51514;52.206;5.114;2023-05-20T04:22:35;102553.16;;;12.45;76.48
64886;BME280;51514;52.206;5.114;2023-05-20T04:25:01;102554.88;;;12.46;76.94
64886;BME280;51514;52.206;5.114;2023-05-20T04:27:28;102557.59;;;12.46;77.18
64886;BME280;51514;52.206;5.114;2023-05-20T04:29:54;102556.59;;;12.47;77.21
64886;BME280;51514;52.206;5.114;2023-05-20T04:32:20;102558.19;;;12.50;77.31
64886;BME280;51514;52.206;5.114;2023-05-20T04:34:45;102555.38;;;12.51;77.78
64886;BME280;51514;52.206;5.114;2023-05-20T04:37:11;102556.97;;;12.54;77.79
64886;BME280;51514;52.206;5.114;2023-05-20T04:39:38;102553.22;;;12.55;77.43
64886;BME280;51514;52.206;5.114;2023-05-20T04:42:07;102554.94;;;12.56;77.59
64886;BME280;51514;52.206;5.114;2023-05-20T04:44:33;102565.53;;;12.59;77.56
64886;BME280;51514;52.206;5.114;2023-05-20T04:46:58;102560.97;;;12.59;78.38
64886;BME280;51514;52.206;5.114;2023-05-20T04:49:25;102567.97;;;12.62;77.97
64886;BME280;51514;52.206;5.114;2023-05-20T04:51:51;102573.28;;;12.63;77.95
64886;BME280;51514;52.206;5.114;2023-05-20T04:54:16;102570.28;;;12.66;78.48
64886;BME280;51514;52.206;5.114;2023-05-20T04:56:44;102571.00;;;12.68;78.19
64886;BME280;51514;52.206;5.114;2023-05-20T04:59:11;102568.06;;;12.71;78.63
64886;BME280;51514;52.206;5.114;2023-05-20T05:01:36;102565.09;;;12.74;78.52
64886;BME280;51514;52.206;5.114;2023-05-20T05:04:01;102556.97;;;12.74;78.40
64886;BME280;51514;52.206;5.114;2023-05-20T05:06:27;102561.13;;;12.78;78.63
64886;BME280;51514;52.206;5.114;2023-05-20T05:08:53;102561.84;;;12.80;78.29
64886;BME280;51514;52.206;5.114;2023-05-20T05:11:18;102555.44;;;12.82;78.16
64886;BME280;51514;52.206;5.114;2023-05-20T05:13:43;102539.81;;;12.85;77.80
64886;BME280;51514;52.206;5.114;2023-05-20T05:16:09;102545.09;;;12.87;78.07
64886;BME280;51514;52.206;5.114;2023-05-20T05:18:34;102554.78;;;12.89;78.03
64886;BME280;51514;52.206;5.114;2023-05-20T05:21:04;102555.50;;;12.91;77.58
64886;BME280;51514;52.206;5.114;2023-05-20T05:23:30;102555.38;;;12.93;77.86
64886;BME280;51514;52.206;5.114;2023-05-20T05:25:55;102555.13;;;12.96;76.95
64886;BME280;51514;52.206;5.114;2023-05-20T05:28:21;102550.63;;;13.06;77.38
64886;BME280;51514;52.206;5.114;2023-05-20T05:30:47;102552.16;;;13.20;76.82
64886;BME280;51514;52.206;5.114;2023-05-20T05:33:13;102551.94;;;13.32;76.22
64886;BME280;51514;52.206;5.114;2023-05-20T05:35:40;102545.03;;;13.49;75.79
64886;BME280;51514;52.206;5.114;2023-05-20T05:38:05;102549.19;;;13.53;74.54
64886;BME280;51514;52.206;5.114;2023-05-20T05:40:31;102540.09;;;13.64;74.48
64886;BME280;51514;52.206;5.114;2023-05-20T05:42:56;102538.25;;;13.74;73.92
64886;BME280;51514;52.206;5.114;2023-05-20T05:45:22;102545.13;;;13.78;72.50
64886;BME280;51514;52.206;5.114;2023-05-20T05:47:47;102540.00;;;13.84;73.03
64886;BME280;51514;52.206;5.114;2023-05-20T05:50:12;102537.47;;;13.93;72.64
64886;BME280;51514;52.206;5.114;2023-05-20T05:52:37;102540.81;;;14.06;73.01
64886;BME280;51514;52.206;5.114;2023-05-20T05:55:03;102538.97;;;14.16;72.52
64886;BME280;51514;52.206;5.114;2023-05-20T05:57:29;102535.53;;;14.23;72.77
64886;BME280;51514;52.206;5.114;2023-05-20T05:59:54;102540.69;;;14.27;72.00
64886;BME280;51514;52.206;5.114;2023-05-20T06:02:21;102538.97;;;14.25;71.87
64886;BME280;51514;52.206;5.114;2023-05-20T06:04:46;102544.41;;;14.35;71.50
64886;BME280;51514;52.206;5.114;2023-05-20T06:07:11;102543.44;;;14.46;71.04
64886;BME280;51514;52.206;5.114;2023-05-20T06:09:37;102544.16;;;14.57;70.75
64886;BME280;51514;52.206;5.114;2023-05-20T06:12:03;102544.13;;;14.67;70.42
64886;BME280;51514;52.206;5.114;2023-05-20T06:14:28;102545.53;;;14.71;70.80
64886;BME280;51514;52.206;5.114;2023-05-20T06:16:54;102542.84;;;14.81;70.01
64886;BME280;51514;52.206;5.114;2023-05-20T06:19:19;102543.72;;;14.81;70.77
64886;BME280;51514;52.206;5.114;2023-05-20T06:21:44;102548.66;;;14.95;70.76
64886;BME280;51514;52.206;5.114;2023-05-20T06:24:10;102532.91;;;15.09;70.21
64886;BME280;51514;52.206;5.114;2023-05-20T06:26:35;102536.03;;;15.23;70.56
64886;BME280;51514;52.206;5.114;2023-05-20T06:29:02;102537.72;;;15.34;69.49
64886;BME280;51514;52.206;5.114;2023-05-20T06:31:27;102534.81;;;15.45;69.87
64886;BME280;51514;52.206;5.114;2023-05-20T06:33:54;102539.50;;;15.53;69.27
64886;BME280;51514;52.206;5.114;2023-05-20T06:36:19;102547.50;;;15.64;68.86
64886;BME280;51514;52.206;5.114;2023-05-20T06:38:45;102541.28;;;15.72;68.67
64886;BME280;51514;52.206;5.114;2023-05-20T06:41:10;102535.25;;;15.78;67.36
64886;BME280;51514;52.206;5.114;2023-05-20T06:43:35;102537.97;;;15.78;67.01
64886;BME280;51514;52.206;5.114;2023-05-20T06:46:01;102536.50;;;15.83;66.72
64886;BME280;51514;52.206;5.114;2023-05-20T06:48:26;102542.59;;;15.95;67.46
64886;BME280;51514;52.206;5.114;2023-05-20T06:50:51;102525.19;;;16.05;66.47
64886;BME280;51514;52.206;5.114;2023-05-20T06:53:17;102529.06;;;16.03;64.96
64886;BME280;51514;52.206;5.114;2023-05-20T06:55:42;102529.78;;;16.05;65.47
64886;BME280;51514;52.206;5.114;2023-05-20T06:58:07;102526.75;;;16.08;64.55
64886;BME280;51514;52.206;5.114;2023-05-20T07:00:33;102522.19;;;16.09;63.79
64886;BME280;51514;52.206;5.114;2023-05-20T07:02:58;102520.84;;;16.13;65.33
64886;BME280;51514;52.206;5.114;2023-05-20T07:05:23;102524.44;;;16.31;66.11
64886;BME280;51514;52.206;5.114;2023-05-20T07:07:49;102526.16;;;16.50;66.11
64886;BME280;51514;52.206;5.114;2023-05-20T07:10:15;102520.47;;;16.61;65.15
64886;BME280;51514;52.206;5.114;2023-05-20T07:12:40;102522.09;;;16.71;64.84
64886;BME280;51514;52.206;5.114;2023-05-20T07:15:07;102518.28;;;16.82;64.92
64886;BME280;51514;52.206;5.114;2023-05-20T07:17:32;102520.84;;;16.84;61.55
64886;BME280;51514;52.206;5.114;2023-05-20T07:19:57;102510.81;;;16.84;63.49
64886;BME280;51514;52.206;5.114;2023-05-20T07:22:23;102516.16;;;16.94;62.61
64886;BME280;51514;52.206;5.114;2023-05-20T07:24:48;102513.00;;;17.06;63.13
64886;BME280;51514;52.206;5.114;2023-05-20T07:27:13;102514.25;;;17.20;63.37
64886;BME280;51514;52.206;5.114;2023-05-20T07:29:39;102505.81;;;17.31;61.92
64886;BME280;51514;52.206;5.114;2023-05-20T07:32:04;102506.19;;;17.36;60.94
64886;BME280;51514;52.206;5.114;2023-05-20T07:34:30;102497.72;;;17.47;61.02
64886;BME280;51514;52.206;5.114;2023-05-20T07:36:56;102501.00;;;17.59;61.16
64886;BME280;51514;52.206;5.114;2023-05-20T07:39:22;102503.47;;;17.70;60.54
64886;BME280;51514;52.206;5.114;2023-05-20T07:41:48;102500.75;;;17.78;59.02
64886;BME280;51514;52.206;5.114;2023-05-20T07:44:13;102496.00;;;17.80;58.18
64886;BME280;51514;52.206;5.114;2023-05-20T07:46:39;102485.09;;;17.88;57.93
64886;BME280;51514;52.206;5.114;2023-05-20T07:49:06;102492.63;;;17.95;56.75
64886;BME280;51514;52.206;5.114;2023-05-20T07:51:32;102495.22;;;18.04;57.19
64886;BME280;51514;52.206;5.114;2023-05-20T07:53:57;102492.13;;;18.07;55.80
64886;BME280;51514;52.206;5.114;2023-05-20T07:56:22;102484.47;;;18.19;56.33
64886;BME280;51514;52.206;5.114;2023-05-20T07:58:53;102489.44;;;18.32;56.98
64886;BME280;51514;52.206;5.114;2023-05-20T08:01:19;102484.81;;;18.40;55.00
64886;BME280;51514;52.206;5.114;2023-05-20T08:03:44;102472.56;;;18.44;54.81
64886;BME280;51514;52.206;5.114;2023-05-20T08:06:10;102482.47;;;18.45;54.92
64886;BME280;51514;52.206;5.114;2023-05-20T08:08:45;102474.94;;;18.55;53.99
64886;BME280;51514;52.206;5.114;2023-05-20T08:11:10;102477.84;;;18.54;53.64
64886;BME280;51514;52.206;5.114;2023-05-20T08:13:39;102479.72;;;18.62;52.33
64886;BME280;51514;52.206;5.114;2023-05-20T08:16:04;102484.72;;;18.58;52.95
64886;BME280;51514;52.206;5.114;2023-05-20T08:18:31;102480.44;;;18.64;52.80
64886;BME280;51514;52.206;5.114;2023-05-20T08:20:57;102477.00;;;18.78;55.27
64886;BME280;51514;52.206;5.114;2023-05-20T08:23:23;102468.13;;;18.76;52.40
64886;BME280;51514;52.206;5.114;2023-05-20T08:25:48;102481.28;;;18.80;51.45
64886;BME280;51514;52.206;5.114;2023-05-20T08:28:14;102476.16;;;18.77;49.01
64886;BME280;51514;52.206;5.114;2023-05-20T08:30:39;102470.00;;;18.67;49.12
64886;BME280;51514;52.206;5.114;2023-05-20T08:33:05;102468.13;;;18.68;50.36
64886;BME280;51514;52.206;5.114;2023-05-20T08:35:31;102473.59;;;18.68;50.37
64886;BME280;51514;52.206;5.114;2023-05-20T08:37:56;102473.25;;;18.63;50.66
64886;BME280;51514;52.206;5.114;2023-05-20T08:40:22;102463.69;;;18.75;51.60
64886;BME280;51514;52.206;5.114;2023-05-20T08:42:49;102464.66;;;18.98;51.43
64886;BME280;51514;52.206;5.114;2023-05-20T08:45:18;102453.34;;;19.09;49.97
64886;BME280;51514;52.206;5.114;2023-05-20T08:47:44;102459.81;;;19.24;51.55
64886;BME280;51514;52.206;5.114;2023-05-20T08:50:11;102451.53;;;19.41;50.89
64886;BME280;51514;52.206;5.114;2023-05-20T08:52:41;102438.69;;;19.41;47.71
64886;BME280;51514;52.206;5.114;2023-05-20T08:55:13;102454.25;;;19.49;48.62
64886;BME280;51514;52.206;5.114;2023-05-20T08:57:39;102451.50;;;19.57;49.37
64886;BME280;51514;52.206;5.114;2023-05-20T09:00:07;102443.91;;;19.67;50.11
64886;BME280;51514;52.206;5.114;2023-05-20T09:02:37;102437.81;;;19.80;49.39
64886;BME280;51514;52.206;5.114;2023-05-20T09:05:03;102437.91;;;19.94;48.65
64886;BME280;51514;52.206;5.114;2023-05-20T09:07:29;102434.09;;;20.03;49.22
64886;BME280;51514;52.206;5.114;2023-05-20T09:09:54;102427.63;;;20.19;48.30
64886;BME280;51514;52.206;5.114;2023-05-20T09:12:20;102439.56;;;20.26;46.72
64886;BME280;51514;52.206;5.114;2023-05-20T09:14:46;102443.50;;;20.01;43.57
64886;BME280;51514;52.206;5.114;2023-05-20T09:17:12;102431.09;;;19.90;44.62
64886;BME280;51514;52.206;5.114;2023-05-20T09:19:37;102433.00;;;19.90;46.84
64886;BME280;51514;52.206;5.114;2023-05-20T09:22:03;102428.06;;;20.08;47.47
64886;BME280;51514;52.206;5.114;2023-05-20T09:24:29;102430.50;;;20.26;48.11
64886;BME280;51514;52.206;5.114;2023-05-20T09:26:54;102428.72;;;20.33;46.80
64886;BME280;51514;52.206;5.114;2023-05-20T09:29:20;102419.72;;;20.47;45.55
64886;BME280;51514;52.206;5.114;2023-05-20T09:31:47;102416.78;;;20.49;44.93
64886;BME280;51514;52.206;5.114;2023-05-20T09:34:13;102414.63;;;20.44;44.25
64886;BME280;51514;52.206;5.114;2023-05-20T09:36:39;102407.16;;;20.53;43.92
64886;BME280;51514;52.206;5.114;2023-05-20T09:39:09;102406.91;;;20.62;45.08
64886;BME280;51514;52.206;5.114;2023-05-20T09:41:38;102417.50;;;20.65;43.69
64886;BME280;51514;52.206;5.114;2023-05-20T09:44:04;102404.03;;;20.56;42.63
64886;BME280;51514;52.206;5.114;2023-05-20T09:46:32;102402.09;;;20.64;44.88
64886;BME280;51514;52.206;5.114;2023-05-20T09:48:58;102403.69;;;20.73;44.51
64886;BME280;51514;52.206;5.114;2023-05-20T09:51:24;102389.31;;;20.71;43.05
64886;BME280;51514;52.206;5.114;2023-05-20T09:53:50;102391.41;;;20.69;43.71
64886;BME280;51514;52.206;5.114;2023-05-20T09:56:18;102395.00;;;20.70;42.59
64886;BME280;51514;52.206;5.114;2023-05-20T09:58:46;102394.03;;;20.77;42.90
64886;BME280;51514;52.206;5.114;2023-05-20T10:01:11;102384.41;;;20.67;41.95
64886;BME280;51514;52.206;5.114;2023-05-20T10:03:37;102388.56;;;20.77;43.82
64886;BME280;51514;52.206;5.114;2023-05-20T10:19:26;102376.66;;;21.00;41.94
64886;BME280;51514;52.206;5.114;2023-05-20T10:22:06;102379.00;;;21.03;44.99
64886;BME280;51514;52.206;5.114;2023-05-20T10:24:40;102376.84;;;20.98;42.45
64886;BME280;51514;52.206;5.114;2023-05-20T10:27:10;102369.94;;;21.02;42.17
64886;BME280;51514;52.206;5.114;2023-05-20T10:29:54;102366.34;;;21.02;42.19
64886;BME280;51514;52.206;5.114;2023-05-20T10:32:27;102366.25;;;20.81;41.21
64886;BME280;51514;52.206;5.114;2023-05-20T10:35:01;102356.81;;;20.98;42.80
64886;BME280;51514;52.206;5.114;2023-05-20T10:37:38;102356.34;;;21.09;41.82
64886;BME280;51514;52.206;5.114;2023-05-20T10:40:06;102354.50;;;21.16;42.45
64886;BME280;51514;52.206;5.114;2023-05-20T10:42:32;102351.09;;;21.14;39.94
64886;BME280;51514;52.206;5.114;2023-05-20T10:44:57;102342.03;;;20.99;40.17
64886;BME280;51514;52.206;5.114;2023-05-20T10:47:23;102341.09;;;21.06;41.02
64886;BME280;51514;52.206;5.114;2023-05-20T10:49:48;102345.53;;;21.22;41.05
64886;BME280;51514;52.206;5.114;2023-05-20T10:52:15;102335.69;;;21.28;42.03
64886;BME280;51514;52.206;5.114;2023-05-20T10:54:55;102345.63;;;21.14;40.16
64886;BME280;51514;52.206;5.114;2023-05-20T10:57:21;102336.94;;;21.25;42.07
64886;BME280;51514;52.206;5.114;2023-05-20T10:59:48;102335.75;;;21.34;40.17
64886;BME280;51514;52.206;5.114;2023-05-20T11:02:15;102325.56;;;21.28;40.86
64886;BME280;51514;52.206;5.114;2023-05-20T11:04:44;102329.91;;;21.37;39.94
64886;BME280;51514;52.206;5.114;2023-05-20T11:07:10;102314.84;;;21.33;41.17
64886;BME280;51514;52.206;5.114;2023-05-20T11:09:36;102314.66;;;21.35;41.42
64886;BME280;51514;52.206;5.114;2023-05-20T11:12:01;102319.03;;;21.29;42.30
64886;BME280;51514;52.206;5.114;2023-05-20T11:14:30;102323.94;;;21.34;42.66
64886;BME280;51514;52.206;5.114;2023-05-20T11:16:57;102312.09;;;21.33;40.72
64886;BME280;51514;52.206;5.114;2023-05-20T11:19:22;102318.13;;;21.43;41.73
64886;BME280;51514;52.206;5.114;2023-05-20T11:21:48;102317.50;;;21.63;43.68
64886;BME280;51514;52.206;5.114;2023-05-20T11:24:20;102306.25;;;21.79;40.39
64886;BME280;51514;52.206;5.114;2023-05-20T11:26:46;102307.22;;;21.93;41.18
64886;BME280;51514;52.206;5.114;2023-05-20T11:29:11;102312.44;;;21.88;41.23
64886;BME280;51514;52.206;5.114;2023-05-20T11:31:37;102324.03;;;21.83;41.25
64886;BME280;51514;52.206;5.114;2023-05-20T11:34:03;102311.22;;;21.69;40.00
64886;BME280;51514;52.206;5.114;2023-05-20T11:36:28;102302.47;;;21.59;38.92
64886;BME280;51514;52.206;5.114;2023-05-20T11:38:58;102291.44;;;21.73;41.08
64886;BME280;51514;52.206;5.114;2023-05-20T11:41:25;102288.19;;;21.91;40.39
64886;BME280;51514;52.206;5.114;2023-05-20T11:43:56;102296.66;;;21.96;41.89
64886;BME280;51514;52.206;5.114;2023-05-20T11:46:22;102297.47;;;21.90;41.03
64886;BME280;51514;52.206;5.114;2023-05-20T11:48:52;102297.63;;;21.82;41.04
64886;BME280;51514;52.206;5.114;2023-05-20T11:51:30;102290.91;;;21.84;42.14
64886;BME280;51514;52.206;5.114;2023-05-20T11:54:06;102289.25;;;21.47;40.00
64886;BME280;51514;52.206;5.114;2023-05-20T11:56:33;102285.66;;;21.26;41.23
64886;BME280;51514;52.206;5.114;2023-05-20T11:58:59;102289.81;;;21.22;41.01
64886;BME280;51514;52.206;5.114;2023-05-20T12:01:26;102282.59;;;21.35;43.38
64886;BME280;51514;52.206;5.114;2023-05-20T12:03:54;102278.47;;;21.46;42.00
64886;BME280;51514;52.206;5.114;2023-05-20T12:06:19;102291.34;;;21.67;41.12
64886;BME280;51514;52.206;5.114;2023-05-20T12:08:45;102275.25;;;21.42;40.42
64886;BME280;51514;52.206;5.114;2023-05-20T12:11:12;102274.75;;;21.54;42.32
64886;BME280;51514;52.206;5.114;2023-05-20T12:13:37;102263.75;;;21.75;42.18
64886;BME280;51514;52.206;5.114;2023-05-20T12:16:03;102260.25;;;21.88;41.63
64886;BME280;51514;52.206;5.114;2023-05-20T12:18:32;102251.09;;;21.74;41.27
64886;BME280;51514;52.206;5.114;2023-05-20T12:20:58;102252.91;;;21.67;42.27
64886;BME280;51514;52.206;5.114;2023-05-20T12:23:24;102274.50;;;21.48;40.63
64886;BME280;51514;52.206;5.114;2023-05-20T12:25:49;102265.22;;;21.28;41.52
64886;BME280;51514;52.206;5.114;2023-05-20T12:28:15;102265.34;;;21.05;39.92
64886;BME280;51514;52.206;5.114;2023-05-20T12:30:41;102261.75;;;21.05;41.69
64886;BME280;51514;52.206;5.114;2023-05-20T12:33:08;102254.25;;;21.13;42.08
64886;BME280;51514;52.206;5.114;2023-05-20T12:35:37;102257.69;;;21.37;44.48
64886;BME280;51514;52.206;5.114;2023-05-20T12:38:03;102259.72;;;21.49;41.80
64886;BME280;51514;52.206;5.114;2023-05-20T12:40:48;102258.53;;;21.37;40.32
64886;BME280;51514;52.206;5.114;2023-05-20T12:43:14;102263.25;;;21.43;41.63
64886;BME280;51514;52.206;5.114;2023-05-20T12:45:39;102267.03;;;21.42;41.20
64886;BME280;51514;52.206;5.114;2023-05-20T12:48:05;102247.72;;;21.29;40.39
64886;BME280;51514;52.206;5.114;2023-05-20T12:50:32;102250.56;;;21.42;42.45
64886;BME280;51514;52.206;5.114;2023-05-20T12:52:57;102246.25;;;21.55;42.94
64886;BME280;51514;52.206;5.114;2023-05-20T12:55:22;102242.72;;;21.61;43.04
64886;BME280;51514;52.206;5.114;2023-05-20T12:57:48;102251.53;;;21.56;41.37
64886;BME280;51514;52.206;5.114;2023-05-20T13:00:17;102240.38;;;21.58;41.97